Schneifelwetter: Wetterstation Hallschlag, 537 m . NN
Wetterdaten: Donnerstag, 13.08.2009
Datum Zeit Temp. A. Feuchte A. Luftdruck Regen Wind Richtung Richtung Sonnenschein Helligkeit T Regen Taupunkt Windchill
13.08.2009 00:00 16,5 C 92 % 1016 hPa 0,0 l/m 7,2 km/h (2 Bft) W 260 0 min 0 lux 0,00 min 15,2 C 16,1 C
13.08.2009 00:15 16,4 C 92 % 1016 hPa 0,3 l/m 10,4 km/h (2 Bft) W22.5 260 0 min 0 lux 15,00 min 15,1 C 14,5 C
13.08.2009 00:30 16,4 C 92 % 1016 hPa 0,0 l/m 11,3 km/h (2 Bft) W 260 0 min 0 lux 0,00 min 15,1 C 14,1 C
13.08.2009 00:45 16,3 C 91 % 1016 hPa 0,0 l/m 10,3 km/h (2 Bft) W 260 0 min 0 lux 0,00 min 14,8 C 14,4 C
13.08.2009 01:00 16,2 C 92 % 1016 hPa 0,0 l/m 16,5 km/h (3 Bft) W22.5 275 0 min 0 lux 0,00 min 14,9 C 12,2 C
13.08.2009 01:15 16,2 C 93 % 1016 hPa 0,0 l/m 14,5 km/h (3 Bft) W 260 0 min 0 lux 0,00 min 15,1 C 12,8 C
13.08.2009 01:30 16,1 C 93 % 1016 hPa 0,3 l/m 16,8 km/h (3 Bft) W22.5 275 0 min 0 lux 15,00 min 15,0 C 12,0 C
13.08.2009 01:45 15,9 C 92 % 1016 hPa 0,6 l/m 15,3 km/h (3 Bft) W22.5 275 0 min 0 lux 15,00 min 14,6 C 12,2 C
13.08.2009 02:00 15,7 C 93 % 1016 hPa 0,3 l/m 13,0 km/h (3 Bft) W-NW45 295 0 min 0 lux 15,00 min 14,6 C 12,7 C
13.08.2009 02:15 15,6 C 93 % 1016 hPa 0,0 l/m 7,0 km/h (2 Bft) NW22.5 305 0 min 0 lux 0,00 min 14,5 C 15,3 C
13.08.2009 02:30 15,8 C 94 % 1016 hPa 0,0 l/m 19,6 km/h (3 Bft) W22.5 275 0 min 0 lux 0,00 min 14,8 C 10,9 C
13.08.2009 02:45 15,8 C 94 % 1016 hPa 0,0 l/m 21,6 km/h (4 Bft) W45 265 0 min 0 lux 0,00 min 14,8 C 10,4 C
13.08.2009 03:00 15,8 C 94 % 1016 hPa 0,3 l/m 23,5 km/h (4 Bft) W22.5 265 0 min 0 lux 15,00 min 14,8 C 10,0 C
13.08.2009 03:15 15,6 C 93 % 1016 hPa 0,6 l/m 19,1 km/h (3 Bft) W22.5 265 0 min 0 lux 15,00 min 14,5 C 10,7 C
13.08.2009 03:30 15,0 C 93 % 1016 hPa 0,6 l/m 12,6 km/h (3 Bft) N-NW45 340 0 min 0 lux 15,00 min 13,9 C 12,0 C
13.08.2009 03:45 15,0 C 93 % 1016 hPa 0,0 l/m 10,5 km/h (2 Bft) NW45 320 0 min 0 lux 0,00 min 13,9 C 12,9 C
13.08.2009 04:00 14,8 C 93 % 1016 hPa 0,0 l/m 9,9 km/h (2 Bft) NW22.5 320 0 min 0 lux 0,00 min 13,7 C 12,9 C
13.08.2009 04:15 14,6 C 94 % 1016 hPa 0,0 l/m 12,6 km/h (3 Bft) N22.5 355 0 min 0 lux 0,00 min 13,6 C 11,6 C
13.08.2009 04:30 14,3 C 93 % 1016 hPa 0,0 l/m 16,2 km/h (3 Bft) N45 355 0 min 0 lux 0,00 min 13,2 C 9,9 C
13.08.2009 04:45 14,0 C 93 % 1016 hPa 0,0 l/m 9,2 km/h (2 Bft) N-NW45 335 0 min 0 lux 0,00 min 12,9 C 12,4 C
13.08.2009 05:00 13,8 C 92 % 1016 hPa 0,0 l/m 0,4 km/h (0 Bft) NW 320 0 min 0 lux 0,00 min 12,5 C 13,8 C
13.08.2009 05:15 13,8 C 92 % 1016 hPa 0,0 l/m 0,0 km/h (0 Bft) N-NW 330 0 min 0 lux 0,00 min 12,5 C 13,8 C
13.08.2009 05:30 13,7 C 93 % 1016 hPa 0,3 l/m 0,0 km/h (0 Bft) N-NW 330 0 min 0 lux 15,00 min 12,6 C 13,7 C
13.08.2009 05:46 13,6 C 93 % 1016 hPa 0,0 l/m 0,0 km/h (0 Bft) N-NW 330 0 min 0 lux 0,00 min 12,5 C 13,6 C
13.08.2009 06:01 13,6 C 93 % 1016 hPa 0,0 l/m 0,0 km/h (0 Bft) N-NW 330 0 min 0 lux 0,00 min 12,5 C 13,6 C
13.08.2009 06:16 13,6 C 93 % 1016 hPa 0,0 l/m 0,0 km/h (0 Bft) N-NW 330 0 min 139 lux 0,00 min 12,5 C 13,6 C
13.08.2009 06:31 13,6 C 93 % 1016 hPa 0,0 l/m 0,0 km/h (0 Bft) N-NW 330 0 min 393 lux 0,00 min 12,5 C 13,6 C
13.08.2009 06:46 13,6 C 93 % 1016 hPa 0,0 l/m 0,0 km/h (0 Bft) N-NW 330 0 min 1,29 klux 0,00 min 12,5 C 13,6 C
13.08.2009 07:01 13,7 C 93 % 1016 hPa 0,0 l/m 0,0 km/h (0 Bft) N-NW 330 0 min 4,49 klux 0,00 min 12,6 C 13,7 C
13.08.2009 07:16 13,9 C 93 % 1016 hPa 0,0 l/m 0,0 km/h (0 Bft) N-NW 330 0 min 15,8 klux 0,00 min 12,8 C 13,9 C
13.08.2009 07:31 14,4 C 93 % 1016 hPa 0,0 l/m 0,0 km/h (0 Bft) N-NW 330 0 min 19,9 klux 0,00 min 13,3 C 14,4 C
13.08.2009 07:46 14,6 C 93 % 1016 hPa 0,0 l/m 0,0 km/h (0 Bft) N-NW 330 0 min 20,6 klux 0,00 min 13,5 C 14,6 C
13.08.2009 08:01 15,0 C 92 % 1016 hPa 0,0 l/m 0,0 km/h (0 Bft) N-NW 330 0 min 19,0 klux 0,00 min 13,7 C 15,0 C
13.08.2009 08:15 15,5 C 91 % 1016 hPa 0,0 l/m 9,0 km/h (2 Bft) W-SW22.5 255 0 min 31,1 klux 0,00 min 14,0 C 14,1 C
13.08.2009 08:30 15,9 C 90 % 1016 hPa 0,0 l/m 9,8 km/h (2 Bft) W22.5 260 0 min 22,6 klux 0,00 min 14,3 C 14,2 C
13.08.2009 08:46 16,1 C 89 % 1016 hPa 0,0 l/m 8,0 km/h (2 Bft) W-SW 245 16 min 47,2 klux 0,00 min 14,3 C 15,3 C
13.08.2009 09:01 16,7 C 88 % 1017 hPa 0,0 l/m 9,8 km/h (2 Bft) W-SW 250 0 min 44,1 klux 0,00 min 14,7 C 15,1 C
13.08.2009 09:15 17,2 C 87 % 1017 hPa 0,0 l/m 8,0 km/h (2 Bft) W-SW22.5 245 0 min 33,4 klux 0,00 min 15,0 C 16,4 C
13.08.2009 09:30 17,5 C 86 % 1017 hPa 0,0 l/m 12,4 km/h (3 Bft) W-SW22.5 250 15 min 53,7 klux 0,00 min 15,1 C 15,0 C
13.08.2009 09:45 18,0 C 84 % 1016 hPa 0,0 l/m 15,1 km/h (3 Bft) W-SW22.5 255 15 min 58,7 klux 0,00 min 15,3 C 14,8 C
13.08.2009 10:00 18,7 C 81 % 1016 hPa 0,0 l/m 11,9 km/h (2 Bft) W-SW 255 15 min 64,5 klux 0,00 min 15,4 C 16,6 C
13.08.2009 10:15 19,6 C 80 % 1017 hPa 0,0 l/m 11,3 km/h (2 Bft) W-SW 250 15 min 66,4 klux 0,00 min 16,1 C 17,8 C
13.08.2009 10:31 19,6 C 77 % 1017 hPa 0,0 l/m 19,3 km/h (3 Bft) W-SW22.5 250 16 min 47,4 klux 0,00 min 15,5 C 15,8 C
13.08.2009 10:46 19,0 C 79 % 1017 hPa 0,0 l/m 16,1 km/h (3 Bft) W-SW45 245 15 min 49,0 klux 0,00 min 15,3 C 15,8 C
13.08.2009 11:00 19,0 C 77 % 1017 hPa 0,0 l/m 15,9 km/h (3 Bft) W-SW22.5 255 0 min 45,1 klux 0,00 min 14,9 C 15,8 C
13.08.2009 11:15 19,7 C 77 % 1017 hPa 0,0 l/m 17,0 km/h (3 Bft) W-SW22.5 250 15 min 71,3 klux 0,00 min 15,5 C 16,4 C
13.08.2009 11:30 21,0 C 72 % 1016 hPa 0,0 l/m 14,0 km/h (3 Bft) SW22.5 230 15 min 104 klux 0,00 min 15,8 C 18,7 C
13.08.2009 11:45 21,3 C 73 % 1016 hPa 0,0 l/m 12,0 km/h (2 Bft) W 260 15 min 89,8 klux 0,00 min 16,3 C 19,5 C
13.08.2009 12:00 21,7 C 71 % 1016 hPa 0,0 l/m 16,1 km/h (3 Bft) SW45 230 15 min 72,5 klux 0,00 min 16,2 C 19,1 C
13.08.2009 12:15 20,8 C 70 % 1016 hPa 0,0 l/m 14,2 km/h (3 Bft) W-SW22.5 250 0 min 43,5 klux 0,00 min 15,1 C 18,4 C
13.08.2009 12:31 19,5 C 72 % 1016 hPa 0,0 l/m 9,3 km/h (2 Bft) W-SW 245 0 min 15,4 klux 0,00 min 14,3 C 18,3 C
13.08.2009 12:46 19,2 C 73 % 1016 hPa 0,0 l/m 6,3 km/h (2 Bft) W 260 0 min 19,4 klux 0,00 min 14,2 C 19,2 C
13.08.2009 13:00 19,4 C 74 % 1016 hPa 0,0 l/m 9,6 km/h (2 Bft) W-SW 255 0 min 30,4 klux 0,00 min 14,6 C 18,1 C
13.08.2009 13:15 20,1 C 75 % 1016 hPa 0,0 l/m 13,0 km/h (3 Bft) W-SW22.5 255 0 min 39,2 klux 0,00 min 15,5 C 17,9 C
13.08.2009 13:30 20,4 C 72 % 1016 hPa 0,0 l/m 17,8 km/h (3 Bft) W22.5 260 0 min 34,3 klux 0,00 min 15,2 C 17,1 C
13.08.2009 13:45 19,6 C 73 % 1016 hPa 0,0 l/m 12,2 km/h (2 Bft) W22.5 260 0 min 21,8 klux 0,00 min 14,6 C 17,5 C
13.08.2009 14:00 19,0 C 75 % 1016 hPa 0,0 l/m 11,7 km/h (2 Bft) W-SW45 245 0 min 18,7 klux 0,00 min 14,5 C 17,0 C
13.08.2009 14:16 18,9 C 78 % 1016 hPa 0,3 l/m 11,6 km/h (2 Bft) W-SW22.5 245 0 min 30,0 klux 16,00 min 15,0 C 16,9 C
13.08.2009 14:31 18,8 C 78 % 1016 hPa 0,0 l/m 13,4 km/h (3 Bft) W-SW 250 0 min 27,7 klux 0,00 min 14,9 C 16,2 C
13.08.2009 14:45 18,7 C 79 % 1016 hPa 0,0 l/m 10,8 km/h (2 Bft) W-SW 245 0 min 23,2 klux 0,00 min 15,0 C 16,9 C
13.08.2009 15:00 18,7 C 81 % 1016 hPa 0,0 l/m 9,8 km/h (2 Bft) W-SW 245 0 min 29,5 klux 0,00 min 15,4 C 17,3 C
13.08.2009 15:15 18,8 C 81 % 1016 hPa 0,0 l/m 12,6 km/h (3 Bft) W-SW 250 0 min 29,0 klux 0,00 min 15,5 C 16,5 C
13.08.2009 15:30 18,2 C 77 % 1016 hPa 0,3 l/m 8,6 km/h (2 Bft) W 260 0 min 25,1 klux 15,00 min 14,1 C 17,2 C
13.08.2009 15:45 18,0 C 79 % 1016 hPa 0,0 l/m 9,1 km/h (2 Bft) W 265 0 min 28,5 klux 0,00 min 14,3 C 16,8 C
13.08.2009 16:00 18,4 C 78 % 1016 hPa 0,0 l/m 7,6 km/h (2 Bft) N-NW22.5 335 0 min 29,7 klux 0,00 min 14,5 C 17,8 C
13.08.2009 16:16 18,5 C 78 % 1016 hPa 0,0 l/m 10,4 km/h (2 Bft) W22.5 270 0 min 28,2 klux 0,00 min 14,6 C 16,8 C
13.08.2009 16:30 18,3 C 77 % 1016 hPa 0,0 l/m 9,6 km/h (2 Bft) W-NW22.5 290 0 min 19,6 klux 0,00 min 14,2 C 16,9 C
13.08.2009 16:45 17,5 C 80 % 1016 hPa 0,0 l/m 9,7 km/h (2 Bft) N-NW22.5 340 0 min 12,8 klux 0,00 min 14,0 C 16,0 C
13.08.2009 17:00 17,0 C 81 % 1016 hPa 0,0 l/m 15,3 km/h (3 Bft) NW45 325 0 min 9,8 klux 0,00 min 13,7 C 13,5 C
13.08.2009 17:15 16,6 C 83 % 1016 hPa 0,0 l/m 10,0 km/h (2 Bft) N-NW22.5 335 0 min 11,9 klux 0,00 min 13,7 C 14,9 C
13.08.2009 17:30 16,7 C 84 % 1016 hPa 0,0 l/m 2,4 km/h (1 Bft) N-NW 330 0 min 12,2 klux 0,00 min 14,0 C 16,7 C
13.08.2009 17:45 16,7 C 83 % 1016 hPa 0,0 l/m 5,4 km/h (1 Bft) N-NO22.5 20 0 min 13,2 klux 0,00 min 13,8 C 16,7 C
13.08.2009 18:01 16,7 C 83 % 1016 hPa 0,0 l/m 7,6 km/h (2 Bft) NO 35 0 min 13,5 klux 0,00 min 13,8 C 16,1 C
13.08.2009 18:15 17,0 C 84 % 1016 hPa 0,3 l/m 0,7 km/h (0 Bft) NO 35 0 min 14,0 klux 14,00 min 14,3 C 17,0 C
13.08.2009 18:30 16,7 C 85 % 1016 hPa 0,0 l/m 10,0 km/h (2 Bft) NO22.5 50 0 min 9,5 klux 0,00 min 14,2 C 15,0 C
13.08.2009 18:45 16,7 C 85 % 1016 hPa 0,0 l/m 9,7 km/h (2 Bft) N-NO22.5 25 0 min 27,6 klux 0,00 min 14,2 C 15,1 C
13.08.2009 19:00 17,1 C 84 % 1016 hPa 0,0 l/m 8,0 km/h (2 Bft) NO22.5 55 0 min 32,0 klux 0,00 min 14,4 C 16,3 C
13.08.2009 19:15 16,9 C 83 % 1016 hPa 0,0 l/m 10,1 km/h (2 Bft) NO22.5 35 0 min 21,7 klux 0,00 min 14,0 C 15,2 C
13.08.2009 19:30 16,3 C 82 % 1016 hPa 0,0 l/m 8,1 km/h (2 Bft) N-NO67.5 30 0 min 8,77 klux 0,00 min 13,2 C 15,4 C
13.08.2009 19:46 15,6 C 84 % 1016 hPa 0,0 l/m 13,6 km/h (3 Bft) N22.5 5 0 min 7,98 klux 0,00 min 12,9 C 12,4 C
13.08.2009 20:00 15,6 C 85 % 1016 hPa 0,0 l/m 12,7 km/h (3 Bft) N22.5 5 0 min 18,1 klux 0,00 min 13,1 C 12,7 C
13.08.2009 20:15 15,2 C 85 % 1017 hPa 0,0 l/m 10,5 km/h (2 Bft) NO 35 0 min 7,77 klux 0,00 min 12,7 C 13,1 C
13.08.2009 20:30 14,8 C 86 % 1017 hPa 0,0 l/m 9,0 km/h (2 Bft) N22.5 10 0 min 3,89 klux 0,00 min 12,5 C 13,4 C
13.08.2009 20:45 14,4 C 87 % 1017 hPa 0,0 l/m 4,0 km/h (1 Bft) N 5 0 min 2,49 klux 0,00 min 12,3 C 14,4 C
13.08.2009 21:00 14,0 C 88 % 1017 hPa 0,0 l/m 3,6 km/h (1 Bft) N 5 0 min 805 lux 0,00 min 12,0 C 14,0 C
13.08.2009 21:15 13,6 C 88 % 1017 hPa 0,0 l/m 0,0 km/h (0 Bft) N 5 0 min 284 lux 0,00 min 11,6 C 13,6 C
13.08.2009 21:31 12,9 C 88 % 1017 hPa 0,0 l/m 2,5 km/h (1 Bft) N 5 0 min 33 lux 0,00 min 11,0 C 12,9 C
13.08.2009 21:45 12,2 C 89 % 1017 hPa 0,0 l/m 0,0 km/h (0 Bft) N 5 0 min 7 lux 0,00 min 10,4 C 12,2 C
13.08.2009 22:00 11,8 C 90 % 1017 hPa 0,0 l/m 0,0 km/h (0 Bft) N 5 0 min 0 lux 0,00 min 10,2 C 11,8 C
13.08.2009 22:15 11,4 C 90 % 1017 hPa 0,0 l/m 0,0 km/h (0 Bft) N 5 0 min 0 lux 0,00 min 9,8 C 11,4 C
13.08.2009 22:30 10,8 C 91 % 1017 hPa 0,0 l/m 0,0 km/h (0 Bft) N 5 0 min 0 lux 0,00 min 9,4 C 10,8 C
13.08.2009 22:45 10,4 C 92 % 1017 hPa 0,0 l/m 0,0 km/h (0 Bft) N 5 0 min 0 lux 0,00 min 9,2 C 10,4 C
13.08.2009 23:00 10,3 C 92 % 1017 hPa 0,0 l/m 0,0 km/h (0 Bft) N 5 0 min 0 lux 0,00 min 9,1 C 10,3 C
13.08.2009 23:16 10,1 C 92 % 1018 hPa 0,0 l/m 0,0 km/h (0 Bft) N 5 0 min 0 lux 0,00 min 8,9 C 10,1 C
13.08.2009 23:30 9,8 C 94 % 1018 hPa 0,0 l/m 0,0 km/h (0 Bft) N 5 0 min 0 lux 0,00 min 8,9 C 9,8 C
13.08.2009 23:45 10,0 C 94 % 1018 hPa 0,0 l/m 0,0 km/h (0 Bft) N 5 0 min 0 lux 0,00 min 9,1 C 10,0 C
_ Min-Zeit 23:30 12:15 00:00 - 05:15 - - - - - 23:16 23:30
Minimum _ 9,8 C 70 % 1016 hPa - 0,0 km/h (0 Bft) - - - - - 8,9 C 9,8 C
_ Max-Zeit 12:00 02:30 23:16 01:45 03:00 - - 08:46 11:30 14:16 11:45 11:45
Maximum _ 21,7 C 94 % 1018 hPa 0,6 l/m 23,5 km/h
W (4 Bft)
- - 16 min 104 klux 16,00 min 16,3 C 19,5 C
Durchschnitt _ 16,1 C 86 % 1016 hPa #4,2 l/m 8,7 km/h (2 Bft) W-SW - #2:47 h 17,7 klux #2:45 h 13,7 C 14,5 C